Ponce Inlet, Florida
Current Conditions -  °F | °C
As of 12:47 PM on Tuesday 21 Oct 2014 (Local Time) from KEVB Reporting Station
Scattered Clouds Scattered Clouds  
Wind Chill: 81°   Ceiling: Unl
Heat Index: 85°   Visibility: 10mi
Dew Point: 72°   Wind: 7mph
Humidity: 74%   Direction: 360°N
Pressure: 29.96"   Gusts: NA
Location:  29.1091°N, 80.9979°W
Report Text: KEVB 211647Z 36006KT 10SM SCT020 27/22 A2996
Loading
Personal Weather Stations






























Interactive Weather Map
Tropical Storm Tracking
New forecast layout! Learn more

10-Day Weather Forecast

Advertisements
Track Severe Weather on mobile